createdAt,value
2023-05-22T00:01:52.487Z,21.48
2023-05-22T00:04:59.542Z,20.94
2023-05-22T00:08:06.265Z,19.60
2023-05-22T00:11:10.344Z,18.54
2023-05-22T00:14:15.024Z,18.62
2023-05-22T00:17:19.317Z,16.91
2023-05-22T00:20:24.136Z,17.44
2023-05-22T00:23:29.183Z,18.31
2023-05-22T00:26:33.293Z,19.73
2023-05-22T00:29:37.302Z,19.92
2023-05-22T00:32:41.887Z,18.73
2023-05-22T00:35:46.349Z,17.96
2023-05-22T00:38:50.824Z,16.61
2023-05-22T00:41:54.879Z,16.69
2023-05-22T00:44:59.205Z,16.51
2023-05-22T00:48:03.768Z,16.08
2023-05-22T00:51:09.358Z,15.10
2023-05-22T00:54:14.835Z,14.79
2023-05-22T00:57:20.183Z,14.53
2023-05-22T01:00:25.036Z,14.63
2023-05-22T01:03:29.355Z,14.26
2023-05-22T01:06:34.185Z,14.81
2023-05-22T01:09:38.377Z,15.23
2023-05-22T01:13:02.863Z,15.86
2023-05-22T01:17:00.938Z,15.57
2023-05-22T01:20:30.073Z,15.82
2023-05-22T01:24:12.822Z,15.71
2023-05-22T01:27:36.037Z,16.58
2023-05-22T01:30:55.318Z,19.18
2023-05-22T01:34:02.326Z,17.20
2023-05-22T01:37:07.014Z,17.16
2023-05-22T01:40:13.050Z,16.81
2023-05-22T01:43:17.619Z,16.95
2023-05-22T01:46:22.403Z,15.94
2023-05-22T01:49:27.253Z,16.26
2023-05-22T01:52:42.629Z,16.33
2023-05-22T01:56:08.525Z,16.03
2023-05-22T01:59:31.767Z,18.20
2023-05-22T02:02:39.217Z,18.55
2023-05-22T02:05:45.722Z,19.20
2023-05-22T02:08:50.198Z,19.67
2023-05-22T02:11:54.619Z,17.77
2023-05-22T02:14:59.233Z,17.49
2023-05-22T02:18:04.742Z,17.11
2023-05-22T02:21:11.937Z,17.20
2023-05-22T02:24:16.063Z,17.22
2023-05-22T02:27:23.359Z,16.33
2023-05-22T02:30:27.519Z,16.54
2023-05-22T02:33:32.748Z,16.62
2023-05-22T02:36:38.197Z,16.63
2023-05-22T02:39:42.368Z,17.29
2023-05-22T02:42:46.475Z,17.59
2023-05-22T02:45:50.693Z,17.69
2023-05-22T02:48:54.703Z,17.97
2023-05-22T02:51:58.737Z,17.78
2023-05-22T02:55:03.028Z,17.35
2023-05-22T02:58:12.081Z,17.73
2023-05-22T03:01:16.601Z,18.08
2023-05-22T03:04:21.233Z,17.81
2023-05-22T03:07:27.215Z,17.42
2023-05-22T03:10:31.559Z,17.16
2023-05-22T03:13:35.704Z,17.26
2023-05-22T03:16:40.366Z,16.89
2023-05-22T03:19:45.027Z,17.65
2023-05-22T03:22:49.222Z,18.72
2023-05-22T03:25:54.891Z,18.45
2023-05-22T03:29:02.968Z,17.23
2023-05-22T03:32:07.660Z,17.21
2023-05-22T03:35:12.082Z,16.84
2023-05-22T03:38:16.518Z,16.71
2023-05-22T03:41:20.998Z,16.70
2023-05-22T03:44:25.595Z,16.72
2023-05-22T03:47:30.970Z,16.89
2023-05-22T03:50:34.927Z,17.14
2023-05-22T03:53:39.518Z,16.75
2023-05-22T03:56:44.874Z,16.97
2023-05-22T03:59:48.783Z,17.05
2023-05-22T04:02:53.362Z,17.18
2023-05-22T04:06:00.470Z,17.34
2023-05-22T04:09:05.260Z,17.31
2023-05-22T04:12:12.140Z,17.77
2023-05-22T04:15:16.403Z,17.67
2023-05-22T04:18:20.528Z,17.44
2023-05-22T04:21:25.396Z,16.70
2023-05-22T04:24:29.339Z,16.72
2023-05-22T04:27:36.289Z,16.81
2023-05-22T04:30:41.181Z,16.43
2023-05-22T04:33:50.634Z,16.72
2023-05-22T04:36:57.088Z,16.62
2023-05-22T04:40:08.412Z,17.14
2023-05-22T04:43:13.463Z,17.35
2023-05-22T04:46:17.720Z,16.79
2023-05-22T04:49:21.890Z,17.42
2023-05-22T04:52:26.969Z,17.42
2023-05-22T04:55:34.690Z,16.94
2023-05-22T04:58:39.386Z,17.05
2023-05-22T05:01:49.133Z,17.41
2023-05-22T05:04:54.033Z,17.34
2023-05-22T05:07:58.501Z,17.62
2023-05-22T05:11:02.849Z,17.83
2023-05-22T05:14:07.062Z,18.40
2023-05-22T05:17:11.167Z,18.75
2023-05-22T05:20:18.317Z,18.19
2023-05-22T05:23:23.263Z,18.46
2023-05-22T05:26:28.115Z,18.77
2023-05-22T05:29:32.197Z,18.77
2023-05-22T05:32:41.827Z,18.50
2023-05-22T05:35:56.979Z,18.82
2023-05-22T05:39:02.346Z,17.71
2023-05-22T05:42:10.159Z,17.86
2023-05-22T05:45:16.764Z,18.13
2023-05-22T05:48:21.100Z,17.81
2023-05-22T05:51:25.917Z,18.08
2023-05-22T05:54:30.515Z,18.25
2023-05-22T05:57:39.372Z,18.18
2023-05-22T06:00:46.654Z,17.64
2023-05-22T06:03:51.168Z,17.85
2023-05-22T06:07:02.728Z,17.54
2023-05-22T06:10:21.545Z,17.48
2023-05-22T06:13:34.945Z,17.15
2023-05-22T06:16:59.176Z,17.62
2023-05-22T06:20:03.725Z,17.64
2023-05-22T06:23:08.403Z,18.12
2023-05-22T06:26:13.091Z,17.90
2023-05-22T06:29:18.543Z,18.00
2023-05-22T06:32:24.327Z,17.78
2023-05-22T06:35:30.350Z,17.72
2023-05-22T06:38:35.054Z,17.57
2023-05-22T06:41:38.956Z,17.47
2023-05-22T06:44:45.557Z,17.88
2023-05-22T06:47:55.031Z,17.60
2023-05-22T06:50:59.799Z,17.60
2023-05-22T06:54:07.506Z,18.19
2023-05-22T06:57:13.301Z,17.88
2023-05-22T07:00:22.072Z,18.02
2023-05-22T07:03:39.715Z,17.40
2023-05-22T07:07:01.974Z,17.21
2023-05-22T07:10:06.636Z,17.32
2023-05-22T07:13:10.800Z,16.88
2023-05-22T07:16:16.184Z,17.19
2023-05-22T07:19:20.696Z,16.93
2023-05-22T07:22:24.793Z,17.20
2023-05-22T07:25:29.892Z,17.12
2023-05-22T07:28:34.501Z,17.49
2023-05-22T07:31:48.787Z,17.33
2023-05-22T07:34:54.101Z,17.56
2023-05-22T07:37:58.494Z,17.11
2023-05-22T07:41:05.578Z,16.93
2023-05-22T07:44:11.157Z,17.30
2023-05-22T07:47:15.324Z,17.33
2023-05-22T07:50:20.078Z,17.30
2023-05-22T07:53:24.980Z,17.43
2023-05-22T07:56:33.456Z,17.46
2023-05-22T07:59:38.290Z,16.93
2023-05-22T08:02:42.756Z,17.62
2023-05-22T08:05:47.290Z,17.50
2023-05-22T08:08:53.915Z,17.45
2023-05-22T08:11:57.921Z,17.36
2023-05-22T08:15:01.700Z,17.34
2023-05-22T08:18:09.065Z,17.25
2023-05-22T08:21:13.272Z,17.25
2023-05-22T08:24:17.330Z,17.17
2023-05-22T08:27:21.446Z,17.36
2023-05-22T08:30:25.598Z,17.50
2023-05-22T08:33:29.544Z,17.45
2023-05-22T08:36:34.868Z,17.32
2023-05-22T08:39:38.869Z,17.38
2023-05-22T08:42:44.009Z,17.35
2023-05-22T08:45:56.890Z,17.46
2023-05-22T08:49:02.683Z,17.05
2023-05-22T08:52:27.034Z,17.03
2023-05-22T08:55:32.260Z,17.27
2023-05-22T08:58:38.526Z,17.32
2023-05-22T09:01:43.018Z,17.15
2023-05-22T09:04:47.627Z,17.28
2023-05-22T09:07:51.805Z,17.01
2023-05-22T09:10:57.234Z,16.96
2023-05-22T09:14:11.010Z,16.91
2023-05-22T09:17:18.510Z,16.95
2023-05-22T09:20:22.797Z,16.95
2023-05-22T09:23:29.605Z,16.69
2023-05-22T09:26:34.422Z,16.60
2023-05-22T09:30:00.806Z,16.22
2023-05-22T09:33:12.611Z,16.37
2023-05-22T09:36:17.860Z,16.52
2023-05-22T09:39:24.545Z,16.33
2023-05-22T09:42:29.393Z,16.29
2023-05-22T09:45:37.031Z,16.03
2023-05-22T09:48:41.242Z,16.10
2023-05-22T09:51:50.306Z,15.99
2023-05-22T09:54:57.464Z,15.91
2023-05-22T09:58:06.230Z,15.72
2023-05-22T10:01:14.944Z,15.62
2023-05-22T10:04:20.122Z,15.48
2023-05-22T10:07:27.981Z,15.17
2023-05-22T10:10:33.135Z,15.11
2023-05-22T10:13:38.422Z,14.97
2023-05-22T10:16:46.148Z,14.91
2023-05-22T10:19:51.507Z,14.80
2023-05-22T10:22:56.915Z,14.51
2023-05-22T10:26:01.013Z,14.38
2023-05-22T10:29:15.926Z,14.09
2023-05-22T10:32:31.812Z,14.07
2023-05-22T10:35:57.516Z,13.89
2023-05-22T10:39:35.203Z,13.69
2023-05-22T10:42:39.747Z,13.39
2023-05-22T10:45:47.636Z,13.18
2023-05-22T10:48:54.178Z,13.32
2023-05-22T10:51:58.548Z,13.35
2023-05-22T10:55:07.046Z,13.40
2023-05-22T10:58:33.178Z,13.35
2023-05-22T11:01:38.822Z,12.90
2023-05-22T11:04:51.447Z,12.62
2023-05-22T11:08:31.180Z,12.67
2023-05-22T11:11:35.077Z,12.61
2023-05-22T11:14:39.403Z,12.44
2023-05-22T11:17:54.155Z,12.30
2023-05-22T11:21:01.271Z,12.33
2023-05-22T11:24:10.325Z,12.33
2023-05-22T11:27:14.899Z,11.96
2023-05-22T11:30:19.264Z,11.77
2023-05-22T11:33:25.005Z,11.66
2023-05-22T11:36:29.843Z,11.31
2023-05-22T11:39:34.112Z,11.33
2023-05-22T11:42:39.413Z,11.37
2023-05-22T11:45:43.528Z,11.28
2023-05-22T11:48:49.117Z,11.39
2023-05-22T11:51:52.910Z,11.20
2023-05-22T11:54:59.393Z,11.13
2023-05-22T11:58:05.591Z,11.08
2023-05-22T12:01:09.617Z,10.80
2023-05-22T12:04:13.883Z,10.85
2023-05-22T12:07:18.209Z,10.93
2023-05-22T12:10:22.223Z,10.71
2023-05-22T12:13:30.259Z,10.72
2023-05-22T12:16:38.248Z,10.65
2023-05-22T12:19:43.044Z,10.75
2023-05-22T12:22:47.275Z,10.46
2023-05-22T12:26:01.837Z,10.48
2023-05-22T12:29:05.933Z,9.99
2023-05-22T12:32:14.737Z,10.12
2023-05-22T12:35:19.908Z,10.09
2023-05-22T12:38:24.322Z,10.17
2023-05-22T12:41:28.282Z,10.04
2023-05-22T12:44:32.346Z,9.66
2023-05-22T12:47:36.461Z,9.53
2023-05-22T12:50:42.271Z,9.54
2023-05-22T12:53:46.256Z,9.38
2023-05-22T12:56:50.714Z,9.33
2023-05-22T12:59:54.643Z,9.26
2023-05-22T13:03:01.442Z,9.33
2023-05-22T13:06:05.740Z,9.12
2023-05-22T13:09:09.780Z,9.01
2023-05-22T13:12:13.813Z,8.88
2023-05-22T13:15:18.681Z,9.15
2023-05-22T13:18:23.130Z,8.91
2023-05-22T13:21:27.727Z,9.20
2023-05-22T13:24:33.452Z,9.19
2023-05-22T13:27:37.485Z,8.96
2023-05-22T13:30:41.954Z,8.83
2023-05-22T13:33:46.134Z,8.57
2023-05-22T13:36:50.315Z,8.81
2023-05-22T13:39:54.474Z,8.61
2023-05-22T13:42:58.586Z,8.80
2023-05-22T13:46:02.580Z,8.36
2023-05-22T13:49:06.674Z,8.71
2023-05-22T13:52:10.912Z,8.73
2023-05-22T13:55:15.531Z,8.62
2023-05-22T13:58:19.649Z,8.59
2023-05-22T14:01:24.884Z,8.56
2023-05-22T14:04:29.247Z,8.35
2023-05-22T14:07:33.879Z,8.29
2023-05-22T14:10:39.631Z,8.48
2023-05-22T14:13:43.726Z,8.10
2023-05-22T14:16:47.843Z,8.19
2023-05-22T14:19:52.001Z,7.61
2023-05-22T14:22:58.159Z,8.21
2023-05-22T14:26:02.600Z,8.27
2023-05-22T14:29:06.482Z,8.18
2023-05-22T14:32:11.004Z,7.80
2023-05-22T14:35:17.252Z,7.83
2023-05-22T14:38:21.692Z,7.90
2023-05-22T14:41:25.878Z,7.85
2023-05-22T14:44:33.006Z,7.61
2023-05-22T14:47:37.622Z,7.60
2023-05-22T14:50:41.617Z,7.67
2023-05-22T14:53:45.975Z,7.88
2023-05-22T14:56:50.162Z,7.91
2023-05-22T14:59:53.949Z,7.70
2023-05-22T15:02:58.028Z,7.78
2023-05-22T15:06:01.876Z,7.61
2023-05-22T15:09:06.355Z,7.41
2023-05-22T15:12:10.800Z,7.22
2023-05-22T15:15:14.976Z,7.24
2023-05-22T15:18:22.700Z,7.45
2023-05-22T15:21:26.826Z,7.39
2023-05-22T15:24:31.419Z,7.59
2023-05-22T15:27:36.432Z,7.52
2023-05-22T15:30:42.710Z,7.58
2023-05-22T15:33:47.511Z,7.51
2023-05-22T15:36:52.192Z,7.28
2023-05-22T15:39:56.456Z,7.08
2023-05-22T15:43:04.681Z,6.92
2023-05-22T15:46:09.288Z,6.64
2023-05-22T15:49:13.384Z,6.97
2023-05-22T15:52:17.584Z,6.79
2023-05-22T15:55:21.840Z,6.60
2023-05-22T15:58:25.687Z,6.74
2023-05-22T16:01:30.329Z,6.58
2023-05-22T16:04:34.492Z,6.67
2023-05-22T16:07:39.102Z,6.69
2023-05-22T16:10:46.184Z,6.65
2023-05-22T16:13:51.091Z,6.86
2023-05-22T16:16:55.159Z,6.84
2023-05-22T16:19:59.342Z,6.57
2023-05-22T16:23:03.437Z,6.50
2023-05-22T16:26:07.463Z,6.66
2023-05-22T16:29:11.566Z,6.78
2023-05-22T16:32:15.457Z,6.75
2023-05-22T16:35:20.315Z,6.61
2023-05-22T16:38:24.765Z,6.59
2023-05-22T16:41:29.013Z,6.62
2023-05-22T16:44:33.150Z,6.86
2023-05-22T16:47:49.637Z,6.07
2023-05-22T16:51:12.467Z,5.81
2023-05-22T16:54:32.092Z,5.73
2023-05-22T16:57:47.207Z,5.91
2023-05-22T17:01:11.157Z,5.98
2023-05-22T17:04:40.243Z,6.15
2023-05-22T17:07:58.432Z,5.89
2023-05-22T17:11:35.677Z,5.48
2023-05-22T17:14:44.682Z,6.22
2023-05-22T17:17:52.050Z,6.54
2023-05-22T17:21:07.402Z,6.56
2023-05-22T17:24:15.429Z,6.34
2023-05-22T17:27:31.988Z,6.40
2023-05-22T17:30:40.605Z,6.04
2023-05-22T17:33:46.097Z,6.15
2023-05-22T17:36:50.364Z,5.88
2023-05-22T17:39:54.589Z,5.71
2023-05-22T17:43:01.170Z,6.14
2023-05-22T17:46:08.647Z,6.17
2023-05-22T17:49:12.759Z,5.92
2023-05-22T17:52:22.130Z,6.22
2023-05-22T17:55:32.834Z,6.34
2023-05-22T17:58:37.028Z,6.43
2023-05-22T18:01:54.963Z,6.27
2023-05-22T18:05:05.051Z,6.37
2023-05-22T18:08:09.666Z,6.35
2023-05-22T18:11:16.355Z,6.21
2023-05-22T18:14:20.690Z,6.09
2023-05-22T18:17:34.884Z,6.21
2023-05-22T18:20:39.585Z,6.35
2023-05-22T18:23:45.933Z,6.16
2023-05-22T18:26:58.086Z,6.42
2023-05-22T18:30:02.321Z,6.15
2023-05-22T18:33:14.862Z,5.98
2023-05-22T18:36:25.523Z,5.93
2023-05-22T18:39:33.201Z,5.96
2023-05-22T18:42:44.176Z,5.96
2023-05-22T18:45:53.427Z,5.96
2023-05-22T18:49:03.420Z,5.79
2023-05-22T18:52:14.402Z,6.00
2023-05-22T18:55:19.446Z,6.03
2023-05-22T18:58:24.749Z,5.97
2023-05-22T19:01:28.704Z,6.12
2023-05-22T19:04:32.826Z,5.90
2023-05-22T19:07:36.932Z,5.71
2023-05-22T19:10:42.249Z,5.84
2023-05-22T19:13:46.676Z,5.94
2023-05-22T19:16:50.810Z,5.98
2023-05-22T19:19:55.509Z,5.72
2023-05-22T19:23:55.822Z,5.90
2023-05-22T19:28:13.799Z,5.90
2023-05-22T19:32:32.229Z,5.82
2023-05-22T19:36:50.036Z,5.70
2023-05-22T19:41:08.761Z,5.85
2023-05-22T19:45:26.811Z,5.84
2023-05-22T19:49:45.316Z,5.74
2023-05-22T19:54:03.976Z,5.88
2023-05-22T20:03:14.058Z,5.68
2023-05-22T20:12:51.642Z,5.90
2023-05-22T20:17:09.501Z,5.92
2023-05-22T20:21:27.880Z,5.85
2023-05-22T20:25:27.488Z,6.00
2023-05-22T20:29:47.215Z,6.24
2023-05-22T20:34:04.702Z,6.25
2023-05-22T20:38:23.086Z,6.32
2023-05-22T20:42:43.041Z,6.57
2023-05-22T20:47:01.229Z,6.43
2023-05-22T20:51:20.560Z,6.39
2023-05-22T20:55:41.017Z,6.65
2023-05-22T21:03:47.211Z,6.99
2023-05-22T21:08:05.249Z,7.15
2023-05-22T21:12:27.987Z,7.24
2023-05-22T21:16:51.718Z,7.47
2023-05-22T21:21:09.989Z,7.63
2023-05-22T21:25:28.024Z,7.83
2023-05-22T21:29:51.809Z,8.05
2023-05-22T21:38:18.690Z,8.56
2023-05-22T21:42:45.946Z,9.04
2023-05-22T21:47:04.915Z,9.65
2023-05-22T21:51:22.921Z,10.14
2023-05-22T21:55:41.055Z,10.77
2023-05-22T21:59:59.058Z,11.19
2023-05-22T22:04:17.878Z,11.77
2023-05-22T22:08:35.802Z,12.43
2023-05-22T22:12:54.619Z,14.40
2023-05-22T22:17:12.929Z,16.35
2023-05-22T22:21:30.484Z,17.62
2023-05-22T22:29:32.737Z,19.61
2023-05-22T22:33:51.366Z,20.89
2023-05-22T22:38:10.157Z,21.16
2023-05-22T22:42:28.137Z,21.62
2023-05-22T22:46:49.146Z,22.09
2023-05-22T22:51:07.195Z,22.67
2023-05-22T22:55:25.175Z,23.11
2023-05-22T22:59:43.153Z,23.59
2023-05-22T23:03:12.300Z,22.53
2023-05-22T23:06:20.286Z,22.71
2023-05-22T23:09:26.794Z,23.19
2023-05-22T23:12:33.724Z,22.87
2023-05-22T23:15:37.803Z,23.03
2023-05-22T23:18:41.867Z,22.85
2023-05-22T23:21:45.795Z,23.11
2023-05-22T23:24:50.725Z,23.08
2023-05-22T23:27:54.965Z,23.30
2023-05-22T23:30:58.971Z,24.09
2023-05-22T23:34:02.979Z,24.75
2023-05-22T23:37:07.049Z,24.55
2023-05-22T23:40:11.299Z,24.65
2023-05-22T23:43:15.332Z,25.81
2023-05-22T23:46:21.928Z,25.94
2023-05-22T23:49:26.004Z,25.65
2023-05-22T23:52:30.128Z,25.72
2023-05-22T23:55:34.144Z,26.27
2023-05-22T23:58:39.347Z,26.59
